createdAt,value
2019-06-26T00:00:06.453Z,1015.82
2019-06-26T00:01:07.297Z,1015.81
2019-06-26T00:02:06.429Z,1015.80
2019-06-26T00:03:06.498Z,1015.80
2019-06-26T00:04:06.486Z,1015.83
2019-06-26T00:05:06.471Z,1015.77
2019-06-26T00:06:06.369Z,1015.75
2019-06-26T00:07:06.447Z,1015.78
2019-06-26T00:08:06.281Z,1015.76
2019-06-26T00:09:07.284Z,1015.75
2019-06-26T00:10:06.464Z,1015.75
2019-06-26T00:11:06.237Z,1015.77
2019-06-26T00:12:06.208Z,1015.73
2019-06-26T00:13:06.201Z,1015.74
2019-06-26T00:14:06.343Z,1015.71
2019-06-26T00:15:06.254Z,1015.67
2019-06-26T00:16:06.276Z,1015.65
2019-06-26T00:17:06.290Z,1015.65
2019-06-26T00:18:06.217Z,1015.62
2019-06-26T00:19:06.242Z,1015.66
2019-06-26T00:20:06.272Z,1015.66
2019-06-26T00:21:06.250Z,1015.64
2019-06-26T00:22:06.306Z,1015.63
2019-06-26T00:23:06.215Z,1015.60
2019-06-26T00:24:06.223Z,1015.66
2019-06-26T00:25:06.094Z,1015.60
2019-06-26T00:26:06.800Z,1015.56
2019-06-26T00:27:06.140Z,1015.53
2019-06-26T00:28:06.768Z,1015.53
2019-06-26T00:29:06.125Z,1015.51
2019-06-26T00:30:06.697Z,1015.47
2019-06-26T00:31:06.097Z,1015.45
2019-06-26T00:32:06.091Z,1015.44
2019-06-26T00:33:06.020Z,1015.49
2019-06-26T00:34:07.872Z,1015.48
2019-06-26T00:35:06.051Z,1015.45
2019-06-26T00:36:06.050Z,1015.42
2019-06-26T00:37:06.657Z,1015.43
2019-06-26T00:38:06.044Z,1015.41
2019-06-26T00:39:06.099Z,1015.41
2019-06-26T00:40:08.783Z,1015.41
2019-06-26T00:41:06.062Z,1015.41
2019-06-26T00:42:06.034Z,1015.44
2019-06-26T00:43:05.995Z,1015.42
2019-06-26T00:44:06.696Z,1015.42
2019-06-26T00:45:06.680Z,1015.44
2019-06-26T00:46:05.956Z,1015.41
2019-06-26T00:47:05.886Z,1015.41
2019-06-26T00:48:06.043Z,1015.43
2019-06-26T00:50:26.622Z,1015.48
2019-06-26T00:51:27.946Z,1015.49
2019-06-26T00:53:19.884Z,1015.51
2019-06-26T00:56:13.148Z,1015.50
2019-06-26T00:57:13.225Z,1015.50
2019-06-26T00:59:07.036Z,1015.53
2019-06-26T01:00:06.445Z,1015.52
2019-06-26T01:01:07.050Z,1015.48
2019-06-26T01:02:06.918Z,1015.49
2019-06-26T01:03:06.438Z,1015.50
2019-06-26T01:04:06.322Z,1015.49
2019-06-26T01:05:06.390Z,1015.48
2019-06-26T01:06:06.222Z,1015.44
2019-06-26T01:07:06.460Z,1015.44
2019-06-26T01:08:06.323Z,1015.44
2019-06-26T01:09:06.290Z,1015.45
2019-06-26T01:10:06.313Z,1015.42
2019-06-26T01:11:06.291Z,1015.48
2019-06-26T01:12:06.225Z,1015.43
2019-06-26T01:13:06.339Z,1015.39
2019-06-26T01:14:06.496Z,1015.37
2019-06-26T01:15:06.262Z,1015.36
2019-06-26T01:16:06.991Z,1015.29
2019-06-26T01:17:06.387Z,1015.29
2019-06-26T01:18:06.303Z,1015.28
2019-06-26T01:19:06.241Z,1015.26
2019-06-26T01:20:09.060Z,1015.27
2019-06-26T01:21:06.213Z,1015.28
2019-06-26T01:22:06.975Z,1015.28
2019-06-26T01:23:06.182Z,1015.23
2019-06-26T01:25:07.103Z,1015.22
2019-06-26T01:26:06.139Z,1015.28
2019-06-26T01:27:06.129Z,1015.25
2019-06-26T01:28:06.174Z,1015.22
2019-06-26T01:29:06.134Z,1015.27
2019-06-26T01:30:06.023Z,1015.28
2019-06-26T01:31:06.150Z,1015.30
2019-06-26T01:32:13.140Z,1015.25
2019-06-26T01:33:06.237Z,1015.25
2019-06-26T01:34:06.970Z,1015.22
2019-06-26T01:35:05.980Z,1015.21
2019-06-26T01:36:05.990Z,1015.17
2019-06-26T01:37:06.031Z,1015.17
2019-06-26T01:38:06.078Z,1015.17
2019-06-26T01:39:06.021Z,1015.16
2019-06-26T01:40:06.029Z,1015.15
2019-06-26T01:41:06.015Z,1015.15
2019-06-26T01:42:05.942Z,1015.13
2019-06-26T01:43:05.888Z,1015.11
2019-06-26T01:44:14.886Z,1015.07
2019-06-26T01:45:06.516Z,1015.08
2019-06-26T01:46:05.974Z,1015.09
2019-06-26T01:47:06.090Z,1015.09
2019-06-26T01:48:05.956Z,1015.09
2019-06-26T01:49:05.984Z,1015.12
2019-06-26T01:50:05.831Z,1015.07
2019-06-26T01:51:05.900Z,1015.02
2019-06-26T01:52:06.047Z,1014.98
2019-06-26T01:53:05.921Z,1014.94
2019-06-26T01:54:06.548Z,1014.94
2019-06-26T01:55:05.844Z,1014.93
2019-06-26T01:56:05.788Z,1014.90
2019-06-26T01:57:05.770Z,1014.90
2019-06-26T01:58:05.748Z,1014.85
2019-06-26T01:59:07.552Z,1014.87
2019-06-26T02:00:05.746Z,1014.86
2019-06-26T02:01:05.757Z,1014.84
2019-06-26T02:02:05.789Z,1014.81
2019-06-26T02:03:05.691Z,1014.84
2019-06-26T02:04:05.778Z,1014.82
2019-06-26T02:05:05.854Z,1014.81
2019-06-26T02:06:05.703Z,1014.81
2019-06-26T02:07:05.788Z,1014.75
2019-06-26T02:08:06.513Z,1014.72
2019-06-26T02:09:05.784Z,1014.77
2019-06-26T02:10:05.651Z,1014.73
2019-06-26T02:11:05.701Z,1014.70
2019-06-26T02:12:06.528Z,1014.72
2019-06-26T02:13:05.535Z,1014.74
2019-06-26T02:14:05.692Z,1014.72
2019-06-26T02:16:05.508Z,1014.76
2019-06-26T02:17:08.571Z,1014.74
2019-06-26T02:18:05.574Z,1014.73
2019-06-26T02:19:05.667Z,1014.73
2019-06-26T02:20:05.503Z,1014.70
2019-06-26T02:21:05.557Z,1014.69
2019-06-26T02:22:05.570Z,1014.67
2019-06-26T02:24:16.095Z,1014.68
2019-06-26T02:25:05.579Z,1014.73
2019-06-26T02:26:05.582Z,1014.69
2019-06-26T02:27:05.963Z,1014.72
2019-06-26T02:28:05.455Z,1014.71
2019-06-26T02:29:05.603Z,1014.71
2019-06-26T02:30:06.053Z,1014.71
2019-06-26T02:31:05.533Z,1014.70
2019-06-26T02:32:05.444Z,1014.72
2019-06-26T02:33:05.488Z,1014.72
2019-06-26T02:34:05.389Z,1014.71
2019-06-26T02:35:09.312Z,1014.67
2019-06-26T02:36:05.437Z,1014.65
2019-06-26T02:37:06.077Z,1014.67
2019-06-26T02:38:05.299Z,1014.69
2019-06-26T02:39:05.324Z,1014.69
2019-06-26T02:40:05.460Z,1014.73
2019-06-26T02:41:05.251Z,1014.71
2019-06-26T02:42:05.376Z,1014.68
2019-06-26T02:43:07.185Z,1014.68
2019-06-26T02:44:05.353Z,1014.65
2019-06-26T02:45:05.348Z,1014.66
2019-06-26T02:46:06.119Z,1014.67
2019-06-26T02:47:18.785Z,1014.64
2019-06-26T02:48:05.240Z,1014.65
2019-06-26T02:49:05.263Z,1014.56
2019-06-26T02:50:05.466Z,1014.56
2019-06-26T02:51:05.337Z,1014.54
2019-06-26T02:52:05.202Z,1014.53
2019-06-26T02:53:06.081Z,1014.55
2019-06-26T02:54:05.310Z,1014.51
2019-06-26T02:55:05.281Z,1014.50
2019-06-26T02:56:05.111Z,1014.51
2019-06-26T02:57:05.254Z,1014.49
2019-06-26T02:58:05.111Z,1014.51
2019-06-26T02:59:06.132Z,1014.56
2019-06-26T03:00:05.242Z,1014.56
2019-06-26T03:01:05.174Z,1014.56
2019-06-26T03:02:06.160Z,1014.54
2019-06-26T03:03:05.085Z,1014.55
2019-06-26T03:04:05.158Z,1014.59
2019-06-26T03:05:05.073Z,1014.49
2019-06-26T03:06:05.076Z,1014.46
2019-06-26T03:07:05.084Z,1014.46
2019-06-26T03:08:06.601Z,1014.47
2019-06-26T03:09:04.953Z,1014.50
2019-06-26T03:10:05.087Z,1014.49
2019-06-26T03:11:05.120Z,1014.48
2019-06-26T03:12:05.121Z,1014.52
2019-06-26T03:13:05.100Z,1014.47
2019-06-26T03:14:05.060Z,1014.46
2019-06-26T03:15:09.396Z,1014.45
2019-06-26T03:16:05.441Z,1014.46
2019-06-26T03:17:05.000Z,1014.46
2019-06-26T03:18:07.684Z,1014.41
2019-06-26T03:19:04.984Z,1014.41
2019-06-26T03:20:04.957Z,1014.42
2019-06-26T03:21:05.019Z,1014.41
2019-06-26T03:22:05.563Z,1014.39
2019-06-26T03:23:04.881Z,1014.40
2019-06-26T03:24:04.843Z,1014.37
2019-06-26T03:25:05.693Z,1014.37
2019-06-26T03:26:05.516Z,1014.35
2019-06-26T03:27:04.841Z,1014.35
2019-06-26T03:28:04.883Z,1014.36
2019-06-26T03:29:05.616Z,1014.34
2019-06-26T03:30:04.855Z,1014.28
2019-06-26T03:31:04.792Z,1014.30
2019-06-26T03:32:05.581Z,1014.28
2019-06-26T03:33:04.783Z,1014.28
2019-06-26T03:34:04.733Z,1014.30
2019-06-26T03:35:04.744Z,1014.36
2019-06-26T03:36:07.633Z,1014.34
2019-06-26T03:37:04.677Z,1014.34
2019-06-26T03:38:04.684Z,1014.32
2019-06-26T03:39:04.890Z,1014.29
2019-06-26T03:40:05.527Z,1014.26
2019-06-26T03:41:04.861Z,1014.24
2019-06-26T03:42:04.807Z,1014.25
2019-06-26T03:43:04.822Z,1014.24
2019-06-26T03:44:06.592Z,1014.24
2019-06-26T03:45:06.627Z,1014.20
2019-06-26T03:46:04.887Z,1014.19
2019-06-26T03:47:05.554Z,1014.20
2019-06-26T03:48:04.631Z,1014.16
2019-06-26T03:49:04.624Z,1014.18
2019-06-26T03:50:05.639Z,1014.17
2019-06-26T03:51:04.789Z,1014.14
2019-06-26T03:52:04.718Z,1014.16
2019-06-26T03:53:04.706Z,1014.11
2019-06-26T03:55:04.627Z,1014.10
2019-06-26T03:56:04.460Z,1014.08
2019-06-26T03:57:04.563Z,1014.11
2019-06-26T03:58:04.585Z,1014.11
2019-06-26T03:59:04.446Z,1014.14
2019-06-26T04:00:04.639Z,1014.08
2019-06-26T04:01:04.551Z,1014.06
2019-06-26T04:02:04.486Z,1014.06
2019-06-26T04:03:05.131Z,1014.06
2019-06-26T04:04:04.443Z,1014.10
2019-06-26T04:05:04.536Z,1014.12
2019-06-26T04:06:04.471Z,1014.13
2019-06-26T04:07:04.418Z,1014.16
2019-06-26T04:08:06.066Z,1014.13
2019-06-26T04:09:04.469Z,1014.14
2019-06-26T04:10:07.190Z,1014.17
2019-06-26T04:11:04.542Z,1014.13
2019-06-26T04:12:04.418Z,1014.15
2019-06-26T04:13:04.403Z,1014.15
2019-06-26T04:14:05.049Z,1014.18
2019-06-26T04:15:04.300Z,1014.09
2019-06-26T04:16:04.428Z,1014.08
2019-06-26T04:17:04.297Z,1014.07
2019-06-26T04:18:05.184Z,1014.06
2019-06-26T04:19:04.410Z,1014.01
2019-06-26T04:20:04.239Z,1014.02
2019-06-26T04:21:04.281Z,1014.05
2019-06-26T04:22:05.031Z,1014.05
2019-06-26T04:23:05.041Z,1014.04
2019-06-26T04:24:07.094Z,1014.05
2019-06-26T04:25:04.221Z,1014.04
2019-06-26T04:26:04.342Z,1014.01
2019-06-26T04:27:04.181Z,1014.00
2019-06-26T04:28:06.359Z,1014.00
2019-06-26T04:29:04.332Z,1013.95
2019-06-26T04:30:04.207Z,1013.89
2019-06-26T04:31:07.084Z,1013.88
2019-06-26T04:32:04.251Z,1013.88
2019-06-26T04:33:04.350Z,1013.87
2019-06-26T04:34:04.218Z,1013.88
2019-06-26T04:35:04.185Z,1013.90
2019-06-26T04:36:05.076Z,1013.93
2019-06-26T04:37:04.122Z,1013.88
2019-06-26T04:38:04.211Z,1013.93
2019-06-26T04:39:07.085Z,1013.89
2019-06-26T04:40:04.233Z,1013.92
2019-06-26T04:41:04.145Z,1013.90
2019-06-26T04:42:04.237Z,1013.91
2019-06-26T04:43:04.101Z,1013.86
2019-06-26T04:44:03.963Z,1013.83
2019-06-26T04:45:04.081Z,1013.82
2019-06-26T04:46:04.021Z,1013.79
2019-06-26T04:47:04.541Z,1013.80
2019-06-26T04:48:07.062Z,1013.79
2019-06-26T04:50:04.018Z,1013.73
2019-06-26T04:51:03.976Z,1013.70
2019-06-26T04:52:03.994Z,1013.67
2019-06-26T04:53:04.036Z,1013.67
2019-06-26T04:54:04.049Z,1013.65
2019-06-26T04:55:03.997Z,1013.67
2019-06-26T04:56:04.003Z,1013.58
2019-06-26T04:57:03.984Z,1013.60
2019-06-26T04:58:03.954Z,1013.55
2019-06-26T04:59:03.934Z,1013.62
2019-06-26T05:00:04.028Z,1013.67
2019-06-26T05:01:04.067Z,1013.69
2019-06-26T05:02:04.042Z,1013.70
2019-06-26T05:03:03.915Z,1013.73
2019-06-26T05:04:04.622Z,1013.73
2019-06-26T05:05:04.663Z,1013.72
2019-06-26T05:06:04.611Z,1013.67
2019-06-26T05:07:03.817Z,1013.63
2019-06-26T05:08:05.620Z,1013.57
2019-06-26T05:09:03.875Z,1013.57
2019-06-26T05:10:03.807Z,1013.51
2019-06-26T05:11:03.770Z,1013.57
2019-06-26T05:12:03.819Z,1013.53
2019-06-26T05:13:03.774Z,1013.48
2019-06-26T05:14:03.770Z,1013.45
2019-06-26T05:15:03.810Z,1013.44
2019-06-26T05:16:14.293Z,1013.38
2019-06-26T05:17:03.797Z,1013.38
2019-06-26T05:18:03.786Z,1013.39
2019-06-26T05:20:03.762Z,1013.42
2019-06-26T05:21:06.605Z,1013.41
2019-06-26T05:22:03.695Z,1013.42
2019-06-26T05:23:04.576Z,1013.37
2019-06-26T05:24:04.604Z,1013.34
2019-06-26T05:25:03.660Z,1013.35
2019-06-26T05:26:04.606Z,1013.33
2019-06-26T05:27:03.559Z,1013.35
2019-06-26T05:28:03.717Z,1013.32
2019-06-26T05:29:03.546Z,1013.34
2019-06-26T05:30:03.625Z,1013.38
2019-06-26T05:31:03.551Z,1013.37
2019-06-26T05:32:03.784Z,1013.40
2019-06-26T05:33:03.619Z,1013.38
2019-06-26T05:34:03.556Z,1013.34
2019-06-26T05:35:03.585Z,1013.33
2019-06-26T05:36:04.139Z,1013.26
2019-06-26T05:37:03.533Z,1013.26
2019-06-26T05:39:04.122Z,1013.24
2019-06-26T05:40:03.597Z,1013.25
2019-06-26T05:41:03.628Z,1013.18
2019-06-26T05:42:06.574Z,1013.19
2019-06-26T05:43:03.648Z,1013.16
2019-06-26T05:44:03.461Z,1013.11
2019-06-26T05:45:03.430Z,1013.12
2019-06-26T05:46:04.180Z,1013.17
2019-06-26T05:47:06.877Z,1013.16
2019-06-26T05:48:03.452Z,1013.16
2019-06-26T05:49:03.539Z,1013.15
2019-06-26T05:50:03.353Z,1013.16
2019-06-26T05:51:03.388Z,1013.15
2019-06-26T05:52:03.467Z,1013.17
2019-06-26T05:53:03.541Z,1013.19
2019-06-26T05:54:04.131Z,1013.20
2019-06-26T05:55:03.390Z,1013.21
2019-06-26T05:56:03.475Z,1013.24
2019-06-26T05:57:03.414Z,1013.25
2019-06-26T05:58:05.082Z,1013.21
2019-06-26T05:59:03.293Z,1013.22
2019-06-26T06:00:03.311Z,1013.27
2019-06-26T06:01:03.306Z,1013.29
2019-06-26T06:02:03.401Z,1013.25
2019-06-26T06:03:03.333Z,1013.27
2019-06-26T06:04:06.108Z,1013.26
2019-06-26T06:05:03.394Z,1013.23
2019-06-26T06:06:04.248Z,1013.27
2019-06-26T06:07:03.143Z,1013.19
2019-06-26T06:08:04.074Z,1013.18
2019-06-26T06:09:06.177Z,1013.11
2019-06-26T06:10:03.332Z,1013.11
2019-06-26T06:11:03.154Z,1013.14
2019-06-26T06:12:03.323Z,1013.08
2019-06-26T06:13:03.267Z,1013.09
2019-06-26T06:14:03.268Z,1013.07
2019-06-26T06:15:03.214Z,1013.11
2019-06-26T06:16:06.210Z,1013.13
2019-06-26T06:17:03.253Z,1013.12
2019-06-26T06:18:03.292Z,1013.17
2019-06-26T06:19:03.078Z,1013.12
2019-06-26T06:20:03.170Z,1013.12
2019-06-26T06:21:04.726Z,1013.06
2019-06-26T06:22:03.144Z,1013.07
2019-06-26T06:23:03.080Z,1013.03
2019-06-26T06:24:03.092Z,1013.02
2019-06-26T06:25:03.147Z,1013.01
2019-06-26T06:26:03.080Z,1013.01
2019-06-26T06:27:03.016Z,1012.99
2019-06-26T06:28:03.142Z,1013.00
2019-06-26T06:29:03.135Z,1012.99
2019-06-26T06:30:03.091Z,1012.98
2019-06-26T06:31:09.605Z,1012.97
2019-06-26T06:32:03.172Z,1012.98
2019-06-26T06:33:03.081Z,1012.96
2019-06-26T06:34:03.126Z,1012.94
2019-06-26T06:35:02.984Z,1012.92
2019-06-26T06:36:03.605Z,1012.93
2019-06-26T06:37:02.979Z,1012.98
2019-06-26T06:38:03.851Z,1012.97
2019-06-26T06:39:03.085Z,1012.94
2019-06-26T06:40:02.977Z,1012.95
2019-06-26T06:41:03.774Z,1012.96
2019-06-26T06:42:02.868Z,1012.95
2019-06-26T06:43:02.922Z,1013.00
2019-06-26T06:44:02.879Z,1012.91
2019-06-26T06:45:02.906Z,1012.96
2019-06-26T06:46:03.223Z,1012.96
2019-06-26T06:47:04.564Z,1012.95
2019-06-26T06:48:03.699Z,1012.93
2019-06-26T06:49:02.904Z,1012.91
2019-06-26T06:50:02.864Z,1012.90
2019-06-26T06:51:02.879Z,1012.87
2019-06-26T06:52:03.652Z,1012.87
2019-06-26T06:53:02.808Z,1012.85
2019-06-26T06:54:03.688Z,1012.79
2019-06-26T06:55:02.905Z,1012.80
2019-06-26T06:56:03.807Z,1012.80
2019-06-26T06:57:02.961Z,1012.77
2019-06-26T06:58:03.674Z,1012.75
2019-06-26T06:59:02.785Z,1012.70
2019-06-26T07:00:02.910Z,1012.68
2019-06-26T07:01:02.824Z,1012.61
2019-06-26T07:02:03.745Z,1012.57
2019-06-26T07:03:02.954Z,1012.56
2019-06-26T07:04:02.751Z,1012.51
2019-06-26T07:05:02.865Z,1012.55
2019-06-26T07:06:02.772Z,1012.52
2019-06-26T07:07:02.762Z,1012.50
2019-06-26T07:08:02.921Z,1012.52
2019-06-26T07:09:05.600Z,1012.53
2019-06-26T07:10:02.789Z,1012.46
2019-06-26T07:11:03.730Z,1012.46
2019-06-26T07:12:02.790Z,1012.45
2019-06-26T07:13:02.741Z,1012.45
2019-06-26T07:14:02.718Z,1012.45
2019-06-26T07:15:02.587Z,1012.48
2019-06-26T07:16:02.610Z,1012.47
2019-06-26T07:17:15.927Z,1012.46
2019-06-26T07:18:02.584Z,1012.49
2019-06-26T07:19:03.176Z,1012.51
2019-06-26T07:20:03.089Z,1012.54
2019-06-26T07:21:02.600Z,1012.56
2019-06-26T07:22:02.605Z,1012.54
2019-06-26T07:23:02.608Z,1012.50
2019-06-26T07:24:02.606Z,1012.49
2019-06-26T07:25:03.083Z,1012.48
2019-06-26T07:26:02.657Z,1012.47
2019-06-26T07:27:02.524Z,1012.44
2019-06-26T07:28:02.738Z,1012.43
2019-06-26T07:29:02.592Z,1012.40
2019-06-26T07:30:02.675Z,1012.34
2019-06-26T07:31:03.108Z,1012.29
2019-06-26T07:32:03.249Z,1012.35
2019-06-26T07:33:02.545Z,1012.33
2019-06-26T07:34:02.451Z,1012.31
2019-06-26T07:35:02.466Z,1012.25
2019-06-26T07:36:07.343Z,1012.32
2019-06-26T07:37:04.155Z,1012.19
2019-06-26T07:38:02.404Z,1012.25
2019-06-26T07:39:04.291Z,1012.22
2019-06-26T07:40:02.574Z,1012.17
2019-06-26T07:41:03.377Z,1012.17
2019-06-26T07:42:02.327Z,1012.16
2019-06-26T07:43:02.365Z,1012.15
2019-06-26T07:44:02.441Z,1012.15
2019-06-26T07:45:02.530Z,1012.12
2019-06-26T07:46:02.374Z,1012.05
2019-06-26T07:47:12.664Z,1012.09
2019-06-26T07:48:02.378Z,1012.10
2019-06-26T07:49:02.476Z,1012.14
2019-06-26T07:50:03.406Z,1012.17
2019-06-26T07:51:02.400Z,1012.13
2019-06-26T07:52:02.352Z,1012.12
2019-06-26T07:53:04.241Z,1012.11
2019-06-26T07:54:03.209Z,1012.11
2019-06-26T07:55:02.373Z,1012.10
2019-06-26T07:56:02.348Z,1012.14
2019-06-26T07:57:02.239Z,1012.14
2019-06-26T07:58:02.172Z,1012.13
2019-06-26T07:59:03.127Z,1012.12
2019-06-26T08:00:02.508Z,1012.08
2019-06-26T08:01:02.435Z,1012.11
2019-06-26T08:02:02.242Z,1012.04
2019-06-26T08:03:04.460Z,1012.07
2019-06-26T08:04:02.187Z,1012.00
2019-06-26T08:05:02.266Z,1011.95
2019-06-26T08:06:02.195Z,1011.96
2019-06-26T08:07:04.347Z,1011.99
2019-06-26T08:08:02.721Z,1012.06
2019-06-26T08:09:02.195Z,1012.03
2019-06-26T08:10:02.351Z,1012.02
2019-06-26T08:11:05.384Z,1011.98
2019-06-26T08:12:02.320Z,1011.97
2019-06-26T08:13:02.503Z,1011.97
2019-06-26T08:14:02.718Z,1011.99
2019-06-26T08:15:02.110Z,1011.97
2019-06-26T08:16:02.253Z,1011.94
2019-06-26T08:17:02.246Z,1011.88
2019-06-26T08:18:02.285Z,1011.88
2019-06-26T08:19:02.897Z,1011.90
2019-06-26T08:20:02.136Z,1011.89
2019-06-26T08:21:12.008Z,1011.87
2019-06-26T08:22:02.668Z,1011.84
2019-06-26T08:23:02.148Z,1011.88
2019-06-26T08:24:03.765Z,1011.89
2019-06-26T08:25:02.283Z,1011.91
2019-06-26T08:26:02.216Z,1011.90
2019-06-26T08:28:02.051Z,1011.93
2019-06-26T08:29:02.188Z,1011.84
2019-06-26T08:30:02.387Z,1011.91
2019-06-26T08:31:02.720Z,1011.90
2019-06-26T08:32:02.287Z,1011.91
2019-06-26T08:33:02.010Z,1011.92
2019-06-26T08:34:02.127Z,1011.91
2019-06-26T08:35:02.108Z,1011.86
2019-06-26T08:36:02.219Z,1011.91
2019-06-26T08:37:02.196Z,1011.77
2019-06-26T08:38:11.126Z,1011.86
2019-06-26T08:39:02.136Z,1011.89
2019-06-26T08:40:02.121Z,1011.74
2019-06-26T08:41:02.101Z,1011.86
2019-06-26T08:42:03.874Z,1011.79
2019-06-26T08:43:02.197Z,1011.81
2019-06-26T08:44:03.988Z,1011.79
2019-06-26T08:45:02.255Z,1011.83
2019-06-26T08:47:02.156Z,1011.80
2019-06-26T08:48:16.829Z,1011.77
2019-06-26T08:49:02.331Z,1011.77
2019-06-26T08:50:02.462Z,1011.81
2019-06-26T08:51:02.331Z,1011.79
2019-06-26T08:53:02.986Z,1011.73
2019-06-26T08:54:04.707Z,1011.79
2019-06-26T08:55:02.213Z,1011.74
2019-06-26T08:57:02.256Z,1011.81
2019-06-26T08:58:02.136Z,1011.71
2019-06-26T08:59:02.246Z,1011.67
2019-06-26T09:00:02.154Z,1011.71
2019-06-26T09:01:02.236Z,1011.64
2019-06-26T09:02:02.242Z,1011.70
2019-06-26T09:04:02.152Z,1011.72
2019-06-26T09:07:02.222Z,1011.73
2019-06-26T09:08:02.272Z,1011.76
2019-06-26T09:10:02.277Z,1011.67
2019-06-26T09:11:02.203Z,1011.66
2019-06-26T09:13:02.231Z,1011.62
2019-06-26T09:14:02.210Z,1011.64
2019-06-26T09:15:02.222Z,1011.65
2019-06-26T09:17:02.220Z,1011.62
2019-06-26T09:18:02.119Z,1011.66
2019-06-26T09:19:02.326Z,1011.61
2019-06-26T09:20:02.789Z,1011.58
2019-06-26T09:21:02.753Z,1011.58
2019-06-26T09:22:02.274Z,1011.57
2019-06-26T09:23:02.994Z,1011.51
2019-06-26T09:24:02.249Z,1011.53
2019-06-26T09:26:02.226Z,1011.44
2019-06-26T09:27:02.384Z,1011.49
2019-06-26T09:28:02.161Z,1011.47
2019-06-26T09:29:02.242Z,1011.45
2019-06-26T09:30:02.222Z,1011.44
2019-06-26T09:34:02.189Z,1011.39
2019-06-26T09:35:02.735Z,1011.40
2019-06-26T09:36:05.953Z,1011.42
2019-06-26T09:37:02.146Z,1011.42
2019-06-26T09:38:03.074Z,1011.41
2019-06-26T09:40:02.243Z,1011.43
2019-06-26T09:42:02.767Z,1011.42
2019-06-26T09:43:02.184Z,1011.34
2019-06-26T09:44:02.177Z,1011.34
2019-06-26T09:45:03.076Z,1011.40
2019-06-26T09:47:02.186Z,1011.34
2019-06-26T09:48:07.012Z,1011.43
2019-06-26T09:49:02.189Z,1011.39
2019-06-26T09:51:02.230Z,1011.35
2019-06-26T09:52:02.160Z,1011.33
2019-06-26T09:55:02.192Z,1011.35
2019-06-26T09:56:02.161Z,1011.26
2019-06-26T09:57:02.082Z,1011.36
2019-06-26T09:58:02.135Z,1011.30
2019-06-26T09:59:03.012Z,1011.38
2019-06-26T10:00:02.123Z,1011.22
2019-06-26T10:02:02.141Z,1011.29
2019-06-26T10:04:02.188Z,1011.23
2019-06-26T10:06:02.102Z,1011.18
2019-06-26T10:10:02.208Z,1011.15
2019-06-26T10:12:02.183Z,1011.12
2019-06-26T10:13:02.169Z,1011.08
2019-06-26T10:14:02.699Z,1011.06
2019-06-26T10:15:02.169Z,1011.03
2019-06-26T10:16:02.021Z,1010.92
2019-06-26T10:17:02.161Z,1010.95
2019-06-26T10:18:02.689Z,1010.92
2019-06-26T10:20:02.154Z,1010.90
2019-06-26T10:21:02.046Z,1010.77
2019-06-26T10:23:02.166Z,1010.93
2019-06-26T10:26:02.665Z,1010.88
2019-06-26T10:28:02.547Z,1010.83
2019-06-26T10:29:02.177Z,1010.73
2019-06-26T10:31:02.180Z,1010.77
2019-06-26T10:32:02.216Z,1010.85
2019-06-26T10:33:02.131Z,1010.81
2019-06-26T10:34:02.213Z,1010.76
2019-06-26T10:35:02.596Z,1010.83
2019-06-26T10:36:02.171Z,1010.73
2019-06-26T10:37:02.096Z,1010.78
2019-06-26T10:38:02.040Z,1010.75
2019-06-26T10:39:02.146Z,1010.75
2019-06-26T10:41:02.658Z,1010.83
2019-06-26T10:42:02.130Z,1010.73
2019-06-26T10:45:02.171Z,1010.67
2019-06-26T10:47:02.101Z,1010.68
2019-06-26T10:48:02.116Z,1010.64
2019-06-26T10:50:02.091Z,1010.61
2019-06-26T10:51:02.134Z,1010.63
2019-06-26T10:55:02.144Z,1010.52
2019-06-26T10:56:02.076Z,1010.48
2019-06-26T10:57:02.161Z,1010.44
2019-06-26T10:58:02.077Z,1010.39
2019-06-26T10:59:02.023Z,1010.46
2019-06-26T11:01:02.189Z,1010.44
2019-06-26T11:02:02.656Z,1010.56
2019-06-26T11:03:02.651Z,1010.45
2019-06-26T11:04:02.660Z,1010.40
2019-06-26T11:05:02.719Z,1010.34
2019-06-26T11:06:03.777Z,1010.37
2019-06-26T11:07:02.072Z,1010.25
2019-06-26T11:08:02.037Z,1010.33
2019-06-26T11:10:02.074Z,1010.30
2019-06-26T11:11:02.085Z,1010.29
2019-06-26T11:13:02.348Z,1010.23
2019-06-26T11:14:02.172Z,1010.24
2019-06-26T11:15:02.086Z,1010.29
2019-06-26T11:17:02.119Z,1010.28
2019-06-26T11:18:02.078Z,1010.33
2019-06-26T11:19:02.642Z,1010.30
2019-06-26T11:20:03.045Z,1010.29
2019-06-26T11:21:02.181Z,1010.31
2019-06-26T11:22:01.923Z,1010.39
2019-06-26T11:23:02.077Z,1010.31
2019-06-26T11:25:03.088Z,1010.22
2019-06-26T11:26:03.038Z,1010.18
2019-06-26T11:28:02.021Z,1010.17
2019-06-26T11:29:02.153Z,1010.11
2019-06-26T11:32:02.165Z,1010.09
2019-06-26T11:33:02.378Z,1010.05
2019-06-26T11:34:02.191Z,1010.06
2019-06-26T11:37:04.166Z,1010.10
2019-06-26T11:40:02.216Z,1010.00
2019-06-26T11:41:02.183Z,1009.98
2019-06-26T11:43:02.290Z,1009.92
2019-06-26T11:45:02.166Z,1009.98
2019-06-26T11:46:02.665Z,1009.91
2019-06-26T11:48:02.169Z,1009.92
2019-06-26T11:49:03.174Z,1009.93
2019-06-26T11:50:02.119Z,1009.88
2019-06-26T11:52:02.139Z,1009.91
2019-06-26T11:53:02.142Z,1009.93
2019-06-26T11:54:02.133Z,1009.86
2019-06-26T11:56:02.125Z,1009.83
2019-06-26T11:57:02.110Z,1009.85
2019-06-26T11:59:02.083Z,1009.82
2019-06-26T12:01:02.681Z,1009.80
2019-06-26T12:05:02.132Z,1009.75
2019-06-26T12:07:02.126Z,1009.70
2019-06-26T12:08:02.108Z,1009.65
2019-06-26T12:10:02.225Z,1009.71
2019-06-26T12:11:03.170Z,1009.68
2019-06-26T12:12:02.114Z,1009.67
2019-06-26T12:13:03.998Z,1009.74
2019-06-26T12:14:02.071Z,1009.67
2019-06-26T12:15:02.119Z,1009.62
2019-06-26T12:16:02.138Z,1009.68
2019-06-26T12:17:02.083Z,1009.58
2019-06-26T12:19:02.074Z,1009.55
2019-06-26T12:20:17.270Z,1009.58
2019-06-26T12:21:02.069Z,1009.62
2019-06-26T12:22:02.136Z,1009.63
2019-06-26T12:23:03.667Z,1009.62
2019-06-26T12:25:02.232Z,1009.60
2019-06-26T12:26:02.072Z,1009.56
2019-06-26T12:27:01.962Z,1009.57
2019-06-26T12:28:02.092Z,1009.54
2019-06-26T12:29:02.189Z,1009.53
2019-06-26T12:30:01.978Z,1009.53
2019-06-26T12:31:02.027Z,1009.58
2019-06-26T12:32:01.935Z,1009.60
2019-06-26T12:34:01.840Z,1009.61
2019-06-26T12:35:01.994Z,1009.58
2019-06-26T12:36:01.803Z,1009.49
2019-06-26T12:37:02.026Z,1009.54
2019-06-26T12:38:01.968Z,1009.53
2019-06-26T12:39:01.969Z,1009.52
2019-06-26T12:40:02.043Z,1009.49
2019-06-26T12:41:01.869Z,1009.47
2019-06-26T12:42:02.026Z,1009.51
2019-06-26T12:43:01.984Z,1009.47
2019-06-26T12:47:01.929Z,1009.41
2019-06-26T12:49:01.853Z,1009.38
2019-06-26T12:50:01.919Z,1009.47
2019-06-26T12:51:01.736Z,1009.46
2019-06-26T12:52:01.843Z,1009.40
2019-06-26T12:53:01.906Z,1009.43
2019-06-26T12:54:02.634Z,1009.42
2019-06-26T12:55:01.993Z,1009.34
2019-06-26T12:56:01.927Z,1009.38
2019-06-26T12:57:01.905Z,1009.39
2019-06-26T12:58:12.656Z,1009.35
2019-06-26T12:59:01.894Z,1009.32
2019-06-26T13:00:01.801Z,1009.30
2019-06-26T13:01:01.928Z,1009.23
2019-06-26T13:02:01.871Z,1009.27
2019-06-26T13:03:01.918Z,1009.27
2019-06-26T13:04:01.782Z,1009.24
2019-06-26T13:05:03.632Z,1009.15
2019-06-26T13:07:01.813Z,1009.10
2019-06-26T13:08:01.834Z,1009.10
2019-06-26T13:09:01.857Z,1009.07
2019-06-26T13:10:02.394Z,1009.04
2019-06-26T13:11:01.681Z,1009.05
2019-06-26T13:12:01.844Z,1009.00
2019-06-26T13:14:03.198Z,1008.93
2019-06-26T13:15:01.872Z,1008.88
2019-06-26T13:16:01.835Z,1009.03
2019-06-26T13:17:02.385Z,1008.90
2019-06-26T13:18:01.873Z,1008.96
2019-06-26T13:19:01.871Z,1009.04
2019-06-26T13:20:01.834Z,1008.99
2019-06-26T13:22:01.942Z,1008.94
2019-06-26T13:23:01.828Z,1008.94
2019-06-26T13:24:01.791Z,1008.88
2019-06-26T13:25:01.826Z,1008.86
2019-06-26T13:26:01.821Z,1008.77
2019-06-26T13:27:01.847Z,1008.79
2019-06-26T13:28:01.898Z,1008.76
2019-06-26T13:29:01.853Z,1008.70
2019-06-26T13:30:01.838Z,1008.63
2019-06-26T13:31:01.832Z,1008.63
2019-06-26T13:33:01.757Z,1008.57